Time;durP1;ratioP1;P1;durP2;ratioP2;P2;SDS_P1;SDS_P2;PMS_P1;PMS_P2;Temp;Humidity;BMP_temperature;BMP_pressure;BME280_temperature;BME280_humidity;BME280_pressure;Samples;Min_cycle;Max_cycle;Signal;HPM_P1;HPM_P2
2023/05/17 00:01:48;;;;;;;0.00;0.00;;;9.60;78.40;;;;;;5009137;28;20506;-63
2023/05/17 00:04:13;;;;;;;0.00;0.00;;;9.60;78.40;;;;;;5009234;28;20045;-64
2023/05/17 00:06:39;;;;;;;0.00;0.00;;;9.50;78.40;;;;;;5008974;28;20060;-63
2023/05/17 00:09:05;;;;;;;0.00;0.00;;;9.60;78.60;;;;;;5013041;28;20053;-64
2023/05/17 00:11:31;;;;;;;0.00;0.00;;;9.50;78.60;;;;;;5012489;28;20048;-64
2023/05/17 00:13:56;;;;;;;0.10;0.10;;;9.40;78.70;;;;;;5012517;28;20050;-64
2023/05/17 00:16:22;;;;;;;0.00;0.00;;;9.50;78.90;;;;;;5012468;28;20045;-63
2023/05/17 00:18:47;;;;;;;0.00;0.00;;;9.50;78.90;;;;;;5012586;28;20042;-64
2023/05/17 00:21:13;;;;;;;0.00;0.00;;;9.50;78.90;;;;;;5012185;28;20037;-63
2023/05/17 00:23:38;;;;;;;0.00;0.00;;;9.40;79.00;;;;;;5012249;28;20447;-64
2023/05/17 00:26:04;;;;;;;0.00;0.00;;;9.40;79.10;;;;;;5012323;28;20088;-63
2023/05/17 00:28:29;;;;;;;0.00;0.00;;;9.30;79.20;;;;;;5011117;28;20112;-64
2023/05/17 00:30:55;;;;;;;0.00;0.00;;;9.30;79.20;;;;;;5011993;28;20510;-64
2023/05/17 00:33:21;;;;;;;0.00;0.00;;;9.30;79.50;;;;;;4994600;28;20095;-64
2023/05/17 00:35:46;;;;;;;0.00;0.00;;;9.30;79.60;;;;;;5013189;28;20038;-63
2023/05/17 00:38:12;;;;;;;0.00;0.00;;;9.20;79.60;;;;;;5013312;28;20049;-63
2023/05/17 00:40:37;;;;;;;0.82;0.63;;;9.20;79.90;;;;;;5012272;28;20892;-64
2023/05/17 00:43:03;;;;;;;0.00;0.00;;;9.10;79.90;;;;;;5011666;28;20045;-63
2023/05/17 00:45:28;;;;;;;0.05;0.05;;;9.20;79.90;;;;;;5011978;28;20038;-64
2023/05/17 00:47:54;;;;;;;0.00;0.00;;;9.10;80.20;;;;;;5011904;28;20146;-64
2023/05/17 00:50:20;;;;;;;0.00;0.00;;;9.20;80.30;;;;;;5011815;28;20045;-64
2023/05/17 00:52:45;;;;;;;0.00;0.00;;;9.10;80.50;;;;;;5011812;28;20065;-64
2023/05/17 00:55:11;;;;;;;0.20;0.20;;;9.10;80.60;;;;;;5010344;28;20050;-64
2023/05/17 00:57:37;;;;;;;0.00;0.00;;;9.10;80.70;;;;;;5010916;28;20414;-63
2023/05/17 01:00:03;;;;;;;0.00;0.00;;;9.10;80.70;;;;;;5011744;28;20513;-63
2023/05/17 01:02:29;;;;;;;0.00;0.00;;;9.10;80.70;;;;;;5010523;28;20038;-63
2023/05/17 01:04:56;;;;;;;0.03;0.03;;;9.00;80.90;;;;;;5011872;28;20045;-64
2023/05/17 01:07:21;;;;;;;0.00;0.00;;;8.90;81.30;;;;;;5011148;28;20073;-64
2023/05/17 01:09:47;;;;;;;0.13;0.13;;;8.90;81.60;;;;;;5011515;28;20050;-64
2023/05/17 01:12:39;;;;;;;0.00;0.00;;;8.80;81.60;;;;;;5011449;28;20618;-64
2023/05/17 01:15:25;;;;;;;0.00;0.00;;;8.90;81.60;;;;;;5011390;28;20495;-63
2023/05/17 01:18:09;;;;;;;0.00;0.00;;;8.80;81.40;;;;;;5011446;28;20054;-64
2023/05/17 01:20:37;;;;;;;0.00;0.00;;;8.80;81.60;;;;;;5011124;28;20046;-64
2023/05/17 01:23:15;;;;;;;0.00;0.00;;;8.80;81.40;;;;;;5011481;28;20046;-63
2023/05/17 01:26:02;;;;;;;0.00;0.00;;;8.80;81.60;;;;;;5011155;28;20044;-63
2023/05/17 01:28:30;;;;;;;0.00;0.00;;;8.80;81.70;;;;;;5010768;28;20140;-64
2023/05/17 01:30:57;;;;;;;0.10;0.10;;;8.70;81.60;;;;;;5011171;28;20483;-63
2023/05/17 01:33:23;;;;;;;0.00;0.00;;;8.70;81.70;;;;;;5010792;28;20046;-64
2023/05/17 01:35:49;;;;;;;0.00;0.00;;;8.70;81.80;;;;;;5010023;28;20447;-64
2023/05/17 01:38:15;;;;;;;0.00;0.00;;;8.70;81.60;;;;;;5011208;28;20080;-64
2023/05/17 01:40:54;;;;;;;0.00;0.00;;;8.70;81.60;;;;;;5010824;28;20486;-64
2023/05/17 01:43:52;;;;;;;0.00;0.00;;;8.70;81.60;;;;;;5010711;28;20045;-64
2023/05/17 01:46:26;;;;;;;0.10;0.10;;;8.70;82.00;;;;;;5008378;28;20860;-63
2023/05/17 01:49:17;;;;;;;0.00;0.00;;;8.70;81.90;;;;;;5010839;28;20148;-64
2023/05/17 01:51:51;;;;;;;0.35;0.35;;;8.70;82.10;;;;;;5010662;28;20057;-64
2023/05/17 01:54:23;;;;;;;0.00;0.00;;;8.60;82.30;;;;;;5010967;28;20042;-63
2023/05/17 01:56:57;;;;;;;0.00;0.00;;;8.60;82.70;;;;;;5010939;28;20491;-64
2023/05/17 01:59:24;;;;;;;0.00;0.00;;;8.60;82.70;;;;;;5010416;28;20042;-63
2023/05/17 02:01:54;;;;;;;0.10;0.10;;;8.60;82.70;;;;;;5010514;28;20045;-64
2023/05/17 02:04:20;;;;;;;0.00;0.00;;;8.60;82.70;;;;;;5009293;28;20050;-64
2023/05/17 02:06:45;;;;;;;0.00;0.00;;;8.60;82.80;;;;;;5009065;28;20061;-64
2023/05/17 02:09:11;;;;;;;0.00;0.00;;;8.70;82.80;;;;;;5010536;28;20418;-64
2023/05/17 02:11:36;;;;;;;0.00;0.00;;;8.70;82.80;;;;;;5010549;28;20042;-64
2023/05/17 02:14:02;;;;;;;0.00;0.00;;;8.80;82.90;;;;;;5010369;28;20042;-64
2023/05/17 02:16:27;;;;;;;0.47;0.47;;;8.70;82.60;;;;;;5010086;28;20070;-64
2023/05/17 02:18:53;;;;;;;0.00;0.00;;;8.80;82.60;;;;;;5009164;28;20490;-63
2023/05/17 02:21:18;;;;;;;0.00;0.00;;;8.80;82.60;;;;;;5010151;28;20411;-63
2023/05/17 02:23:44;;;;;;;0.00;0.00;;;8.70;82.50;;;;;;5010209;28;20406;-64
2023/05/17 02:26:10;;;;;;;0.00;0.00;;;8.80;82.40;;;;;;5010362;28;20371;-64
2023/05/17 02:28:35;;;;;;;0.00;0.00;;;8.80;82.40;;;;;;5010069;28;20042;-64
2023/05/17 02:31:01;;;;;;;0.00;0.00;;;8.70;82.70;;;;;;5009275;28;20495;-64
2023/05/17 02:33:27;;;;;;;0.00;0.00;;;8.70;82.80;;;;;;5010181;28;20038;-64
2023/05/17 02:35:52;;;;;;;0.00;0.00;;;8.60;82.70;;;;;;5010312;28;20073;-64
2023/05/17 02:38:18;;;;;;;0.08;0.08;;;8.60;83.00;;;;;;5009962;28;20053;-63
2023/05/17 02:40:43;;;;;;;0.30;0.30;;;8.60;82.90;;;;;;5009881;28;20457;-64
2023/05/17 02:43:09;;;;;;;0.00;0.00;;;8.60;82.80;;;;;;5009696;28;20408;-64
2023/05/17 02:45:34;;;;;;;0.00;0.00;;;8.60;82.40;;;;;;5009703;28;20112;-64
2023/05/17 02:48:00;;;;;;;0.00;0.00;;;8.60;82.10;;;;;;5009636;28;20054;-63
2023/05/17 02:50:25;;;;;;;0.00;0.00;;;8.60;81.90;;;;;;5009923;28;20042;-64
2023/05/17 02:52:51;;;;;;;0.00;0.00;;;8.60;81.60;;;;;;5010005;28;20050;-63
2023/05/17 02:55:16;;;;;;;0.00;0.00;;;8.60;81.40;;;;;;5009576;28;20046;-64
2023/05/17 02:57:42;;;;;;;0.00;0.00;;;8.60;81.40;;;;;;5008131;28;20050;-64
2023/05/17 03:00:08;;;;;;;7.03;1.65;;;8.50;81.00;;;;;;5009996;28;20046;-63
2023/05/17 03:02:34;;;;;;;0.00;0.00;;;8.50;81.30;;;;;;5009817;28;20044;-63
2023/05/17 03:04:59;;;;;;;0.00;0.00;;;8.40;81.20;;;;;;5008991;28;20054;-64
2023/05/17 03:07:25;;;;;;;0.00;0.00;;;8.40;81.20;;;;;;5009510;28;20045;-64
2023/05/17 03:09:51;;;;;;;0.00;0.00;;;8.40;81.10;;;;;;5009688;28;20042;-64
2023/05/17 03:12:16;;;;;;;0.00;0.00;;;8.40;81.00;;;;;;5009609;28;20487;-64
2023/05/17 03:14:42;;;;;;;0.00;0.00;;;8.40;80.90;;;;;;5009471;28;20088;-64
2023/05/17 03:17:07;;;;;;;0.00;0.00;;;8.40;80.90;;;;;;5009458;28;20427;-63
2023/05/17 03:19:33;;;;;;;0.00;0.00;;;8.40;80.80;;;;;;5009618;28;20560;-63
2023/05/17 03:21:58;;;;;;;0.00;0.00;;;8.40;80.80;;;;;;5009687;28;20548;-64
2023/05/17 03:24:24;;;;;;;0.10;0.10;;;8.50;80.90;;;;;;5009466;28;20045;-63
2023/05/17 03:26:50;;;;;;;0.00;0.00;;;8.50;80.90;;;;;;5009444;28;20046;-64
2023/05/17 03:29:15;;;;;;;0.00;0.00;;;8.50;80.80;;;;;;5009578;28;20041;-64
2023/05/17 03:31:41;;;;;;;0.00;0.00;;;8.60;80.90;;;;;;5009019;28;20038;-63
2023/05/17 03:34:06;;;;;;;0.00;0.00;;;8.50;80.70;;;;;;5009401;28;20059;-64
2023/05/17 03:36:33;;;;;;;0.00;0.00;;;8.50;80.80;;;;;;5009892;28;20045;-64
2023/05/17 03:38:59;;;;;;;0.00;0.00;;;8.60;80.70;;;;;;5009192;28;20152;-64
2023/05/17 03:41:24;;;;;;;0.00;0.00;;;8.60;80.70;;;;;;5010754;28;20184;-64
2023/05/17 03:43:50;;;;;;;0.00;0.00;;;8.60;80.80;;;;;;5012125;28;20053;-63
2023/05/17 03:46:16;;;;;;;0.00;0.00;;;8.60;80.70;;;;;;5011347;28;20050;-64
2023/05/17 03:48:41;;;;;;;0.00;0.00;;;8.60;80.60;;;;;;5012805;28;20053;-64
2023/05/17 03:51:07;;;;;;;0.00;0.00;;;8.60;80.40;;;;;;4994992;28;20048;-64
2023/05/17 03:53:32;;;;;;;0.00;0.00;;;8.70;80.20;;;;;;5012866;28;20096;-63
2023/05/17 03:55:58;;;;;;;0.00;0.00;;;8.70;79.80;;;;;;5012955;28;20364;-64
2023/05/17 03:58:23;;;;;;;0.00;0.00;;;8.70;79.70;;;;;;5012875;28;20069;-63
2023/05/17 04:00:49;;;;;;;0.03;0.03;;;8.70;79.40;;;;;;5011826;28;20038;-64
2023/05/17 04:03:15;;;;;;;0.00;0.00;;;8.70;77.70;;;;;;5012856;28;20042;-64
2023/05/17 04:05:40;;;;;;;0.00;0.00;;;8.70;78.10;;;;;;5012401;28;20053;-64
2023/05/17 04:08:06;;;;;;;0.00;0.00;;;8.80;78.40;;;;;;5013233;28;20038;-64
2023/05/17 04:10:32;;;;;;;0.20;0.20;;;8.80;78.30;;;;;;5012705;28;20483;-63
2023/05/17 04:12:57;;;;;;;0.10;0.10;;;8.90;78.20;;;;;;5011570;28;20402;-63
2023/05/17 04:15:23;;;;;;;0.00;0.00;;;8.90;78.00;;;;;;5012100;28;20053;-64
2023/05/17 04:17:48;;;;;;;0.00;0.00;;;8.90;77.90;;;;;;5012390;28;20046;-64
2023/05/17 04:20:14;;;;;;;0.10;0.10;;;8.90;77.10;;;;;;5012558;28;20042;-63
2023/05/17 04:22:40;;;;;;;0.00;0.00;;;8.90;77.00;;;;;;5011219;28;20537;-64
2023/05/17 04:25:07;;;;;;;0.30;0.30;;;8.90;77.30;;;;;;5012216;28;20042;-63
2023/05/17 04:27:32;;;;;;;0.13;0.13;;;8.90;76.90;;;;;;5011787;28;20049;-64
2023/05/17 04:29:58;;;;;;;0.00;0.00;;;8.90;76.60;;;;;;5012475;28;20447;-64
2023/05/17 04:32:23;;;;;;;0.00;0.00;;;8.90;75.80;;;;;;5012011;28;20057;-63
2023/05/17 04:34:50;;;;;;;0.00;0.00;;;9.00;76.00;;;;;;5012435;28;20128;-64
2023/05/17 04:37:16;;;;;;;0.00;0.00;;;9.00;75.60;;;;;;5011684;28;20582;-64
2023/05/17 04:39:42;;;;;;;0.00;0.00;;;8.90;73.80;;;;;;4994323;28;20128;-64
2023/05/17 04:42:07;;;;;;;0.00;0.00;;;8.90;74.00;;;;;;5012048;28;20037;-64
2023/05/17 04:44:33;;;;;;;0.00;0.00;;;9.00;73.60;;;;;;5011825;28;20479;-64
2023/05/17 04:46:59;;;;;;;0.00;0.00;;;8.90;73.20;;;;;;5012638;28;20514;-64
2023/05/17 04:49:24;;;;;;;0.00;0.00;;;8.80;73.50;;;;;;5012022;28;20045;-64
2023/05/17 04:51:50;;;;;;;0.30;0.30;;;8.70;72.00;;;;;;5012007;28;20092;-63
2023/05/17 04:54:16;;;;;;;0.00;0.00;;;8.70;72.10;;;;;;5011275;28;20045;-63
2023/05/17 04:56:41;;;;;;;0.00;0.00;;;8.60;71.60;;;;;;5011319;28;20124;-63
2023/05/17 04:59:07;;;;;;;0.00;0.00;;;8.60;72.10;;;;;;5011646;28;20038;-64
2023/05/17 05:01:34;;;;;;;0.00;0.00;;;8.60;71.70;;;;;;5011644;28;20104;-63
2023/05/17 05:04:05;;;;;;;0.00;0.00;;;8.60;72.30;;;;;;5011824;28;20053;-64
2023/05/17 05:06:31;;;;;;;0.00;0.00;;;8.60;72.30;;;;;;5010049;28;20049;-63
2023/05/17 05:08:57;;;;;;;0.00;0.00;;;8.60;72.20;;;;;;5011695;28;20069;-64
2023/05/17 05:11:23;;;;;;;1.10;1.00;;;8.70;72.80;;;;;;5009767;28;20690;-64
2023/05/17 05:13:48;;;;;;;0.00;0.00;;;8.70;72.00;;;;;;5011562;28;20190;-64
2023/05/17 05:16:14;;;;;;;0.00;0.00;;;8.70;72.80;;;;;;5010087;28;20041;-64
2023/05/17 05:18:39;;;;;;;0.00;0.00;;;8.70;72.10;;;;;;5011383;28;20057;-63
2023/05/17 05:21:05;;;;;;;1.00;1.00;;;8.80;72.90;;;;;;5011239;28;20042;-64
2023/05/17 05:23:31;;;;;;;0.00;0.00;;;8.80;72.30;;;;;;5009987;28;20046;-63
2023/05/17 05:25:56;;;;;;;0.13;0.13;;;8.80;72.50;;;;;;5010266;28;20132;-63
2023/05/17 05:28:22;;;;;;;1.67;1.55;;;8.70;72.70;;;;;;5011038;28;20045;-64
2023/05/17 05:30:47;;;;;;;0.03;0.03;;;8.80;72.90;;;;;;5012232;28;20045;-64
2023/05/17 05:33:13;;;;;;;0.00;0.00;;;8.80;73.30;;;;;;5012149;28;20497;-64
2023/05/17 05:35:39;;;;;;;0.00;0.00;;;8.90;73.60;;;;;;5011107;28;20042;-63
2023/05/17 05:38:04;;;;;;;0.00;0.00;;;8.90;73.70;;;;;;5010491;28;20087;-64
2023/05/17 05:40:30;;;;;;;0.17;0.17;;;9.00;74.20;;;;;;5011143;28;20506;-63
2023/05/17 05:42:55;;;;;;;0.15;0.15;;;8.90;73.90;;;;;;5011219;28;20049;-64
2023/05/17 05:45:21;;;;;;;0.00;0.00;;;9.00;73.50;;;;;;5010806;28;20042;-64
2023/05/17 05:47:46;;;;;;;0.00;0.00;;;9.00;73.20;;;;;;5010277;28;20065;-64
2023/05/17 05:50:12;;;;;;;0.00;0.00;;;9.00;72.80;;;;;;5009569;28;20057;-65
2023/05/17 05:52:38;;;;;;;0.03;0.03;;;9.10;73.40;;;;;;5010789;28;20038;-64
2023/05/17 05:55:03;;;;;;;0.00;0.00;;;9.10;73.70;;;;;;5010688;28;20157;-63
2023/05/17 05:57:29;;;;;;;0.00;0.00;;;9.10;73.90;;;;;;5010580;28;20494;-64
2023/05/17 05:59:55;;;;;;;0.00;0.00;;;9.10;74.00;;;;;;5010929;28;20458;-64
2023/05/17 06:02:20;;;;;;;0.00;0.00;;;9.10;74.00;;;;;;5010613;28;20197;-63
2023/05/17 06:04:47;;;;;;;0.00;0.00;;;9.10;74.40;;;;;;5008190;28;20038;-64
2023/05/17 06:07:13;;;;;;;0.20;0.20;;;9.20;74.30;;;;;;5010006;28;20082;-64
2023/05/17 06:09:39;;;;;;;0.00;0.00;;;9.30;73.90;;;;;;5010376;28;20099;-63
2023/05/17 06:12:05;;;;;;;0.05;0.05;;;9.40;73.50;;;;;;5010455;28;20041;-64
2023/05/17 06:14:31;;;;;;;0.00;0.00;;;9.60;72.90;;;;;;5010187;28;20053;-64
2023/05/17 06:16:56;;;;;;;0.00;0.00;;;9.60;72.60;;;;;;5008985;28;20042;-64
2023/05/17 06:19:22;;;;;;;0.00;0.00;;;9.70;72.10;;;;;;5009979;28;20099;-64
2023/05/17 06:21:47;;;;;;;0.00;0.00;;;9.80;71.90;;;;;;5010584;28;20104;-64
2023/05/17 06:24:15;;;;;;;0.03;0.03;;;9.90;71.20;;;;;;5010145;28;20048;-64
2023/05/17 06:26:42;;;;;;;0.00;0.00;;;10.00;70.40;;;;;;5008596;28;20495;-64
2023/05/17 06:29:08;;;;;;;0.88;0.82;;;10.10;70.30;;;;;;5009712;28;20041;-64
2023/05/17 06:31:34;;;;;;;3.08;2.20;;;10.10;69.90;;;;;;5010450;28;20165;-64
2023/05/17 06:33:59;;;;;;;0.20;0.20;;;10.10;69.20;;;;;;5010122;28;20041;-64
2023/05/17 06:36:25;;;;;;;0.00;0.00;;;10.20;68.20;;;;;;5008567;28;20067;-64
2023/05/17 06:38:50;;;;;;;0.00;0.00;;;10.20;67.40;;;;;;5009111;28;20200;-63
2023/05/17 06:41:16;;;;;;;0.30;0.30;;;10.20;67.90;;;;;;5009944;28;20056;-63
2023/05/17 06:43:42;;;;;;;0.00;0.00;;;10.20;65.90;;;;;;5008648;28;20045;-64
2023/05/17 06:46:07;;;;;;;0.00;0.00;;;10.20;66.30;;;;;;5009623;28;20042;-64
2023/05/17 06:48:33;;;;;;;0.00;0.00;;;10.20;67.70;;;;;;5009561;28;20052;-64
2023/05/17 06:50:58;;;;;;;0.08;0.08;;;10.30;67.40;;;;;;5009939;28;20042;-63
2023/05/17 06:53:26;;;;;;;0.10;0.10;;;10.20;66.80;;;;;;5009409;28;20127;-63
2023/05/17 06:55:51;;;;;;;0.00;0.00;;;10.30;66.90;;;;;;5009923;28;20454;-64
2023/05/17 06:58:17;;;;;;;0.00;0.00;;;10.30;66.70;;;;;;5009791;28;20057;-64
2023/05/17 07:00:42;;;;;;;0.00;0.00;;;10.30;65.50;;;;;;5009461;28;20057;-64
2023/05/17 07:03:08;;;;;;;0.43;0.43;;;10.30;65.90;;;;;;5009582;28;20071;-63
2023/05/17 07:05:34;;;;;;;0.38;0.38;;;10.30;65.90;;;;;;5009848;28;20041;-64
2023/05/17 07:08:00;;;;;;;0.40;0.40;;;10.30;65.70;;;;;;5009698;28;20128;-64
2023/05/17 07:10:26;;;;;;;0.10;0.10;;;10.30;63.10;;;;;;5009335;28;20156;-64
2023/05/17 07:12:52;;;;;;;0.00;0.00;;;10.40;61.70;;;;;;5009671;28;20045;-64
2023/05/17 07:15:17;;;;;;;0.22;0.22;;;10.40;63.60;;;;;;5009723;28;20042;-64
2023/05/17 07:17:43;;;;;;;0.20;0.20;;;10.50;64.50;;;;;;5012959;28;20042;-63
2023/05/17 07:20:09;;;;;;;0.55;0.55;;;10.60;64.00;;;;;;5013219;28;20050;-64
2023/05/17 07:22:36;;;;;;;0.00;0.00;;;10.60;63.70;;;;;;5013600;28;20125;-64
2023/05/17 07:25:02;;;;;;;0.00;0.00;;;10.70;63.60;;;;;;5013334;28;20050;-64
2023/05/17 07:27:27;;;;;;;0.70;0.57;;;10.60;61.50;;;;;;5013130;28;20045;-64
2023/05/17 07:29:53;;;;;;;0.00;0.00;;;10.60;63.00;;;;;;5013418;28;20049;-64
2023/05/17 07:32:18;;;;;;;0.00;0.00;;;10.60;62.50;;;;;;5011726;28;20041;-64
2023/05/17 07:34:45;;;;;;;0.00;0.00;;;10.60;62.30;;;;;;5013306;28;20042;-63
2023/05/17 07:37:10;;;;;;;0.00;0.00;;;10.70;61.70;;;;;;5013175;28;20050;-64
2023/05/17 07:39:36;;;;;;;0.00;0.00;;;10.80;61.90;;;;;;5013283;28;20050;-64
2023/05/17 07:42:01;;;;;;;0.00;0.00;;;10.90;62.10;;;;;;5013151;28;20042;-64
2023/05/17 07:44:27;;;;;;;0.15;0.15;;;10.90;62.20;;;;;;5012590;28;20121;-64
2023/05/17 07:46:53;;;;;;;0.38;0.38;;;11.00;61.50;;;;;;5013008;28;20062;-63
2023/05/17 07:49:18;;;;;;;0.00;0.00;;;11.10;62.00;;;;;;5011766;28;20050;-63
2023/05/17 07:51:44;;;;;;;0.20;0.20;;;11.20;62.40;;;;;;5013118;28;20125;-64
2023/05/17 07:54:21;;;;;;;0.63;0.40;;;11.30;61.50;;;;;;4995341;28;20060;-64
2023/05/17 07:56:46;;;;;;;0.00;0.00;;;11.20;60.10;;;;;;5012823;28;20040;-64
2023/05/17 07:59:12;;;;;;;0.00;0.00;;;11.10;59.90;;;;;;5012617;28;20042;-64
2023/05/17 08:01:37;;;;;;;0.00;0.00;;;10.90;58.20;;;;;;5011614;28;20081;-64
2023/05/17 08:04:03;;;;;;;0.35;0.20;;;10.90;59.60;;;;;;5012578;28;20060;-64
2023/05/17 08:06:29;;;;;;;0.00;0.00;;;10.80;59.90;;;;;;5011478;28;20548;-64
2023/05/17 08:08:54;;;;;;;0.00;0.00;;;10.90;60.90;;;;;;5012813;28;20045;-64
2023/05/17 08:11:20;;;;;;;6.28;2.25;;;10.90;60.00;;;;;;5012455;28;20042;-64
2023/05/17 08:13:46;;;;;;;0.00;0.00;;;11.00;61.20;;;;;;5012376;28;20133;-64
2023/05/17 08:16:11;;;;;;;0.45;0.45;;;11.10;60.50;;;;;;5012525;28;20045;-63
2023/05/17 08:18:37;;;;;;;0.00;0.00;;;11.10;59.90;;;;;;5012436;28;20050;-63
2023/05/17 08:21:03;;;;;;;0.30;0.30;;;11.10;60.10;;;;;;5012212;28;20505;-64
2023/05/17 08:23:29;;;;;;;0.00;0.00;;;11.20;61.50;;;;;;5012308;28;20529;-64
2023/05/17 08:25:55;;;;;;;0.00;0.00;;;11.20;61.00;;;;;;5012511;28;20048;-64
2023/05/17 08:28:21;;;;;;;0.00;0.00;;;11.40;61.10;;;;;;5010821;28;20836;-64
2023/05/17 08:30:46;;;;;;;0.00;0.00;;;11.30;59.50;;;;;;5011468;28;20441;-64
2023/05/17 08:33:12;;;;;;;0.00;0.00;;;11.30;60.90;;;;;;5013246;28;20568;-64
2023/05/17 08:35:37;;;;;;;0.00;0.00;;;11.30;61.20;;;;;;5013284;28;20510;-64
2023/05/17 08:38:03;;;;;;;0.05;0.05;;;11.30;61.60;;;;;;5012381;28;20092;-64
2023/05/17 08:40:29;;;;;;;0.00;0.00;;;11.30;62.20;;;;;;5012727;28;20041;-64
2023/05/17 08:42:55;;;;;;;0.85;0.50;;;11.30;63.00;;;;;;5012948;28;20140;-64
2023/05/17 08:45:23;;;;;;;0.00;0.00;;;11.30;63.50;;;;;;5011694;28;20491;-63
2023/05/17 08:47:49;;;;;;;0.00;0.00;;;11.20;63.90;;;;;;5011622;28;20414;-64
2023/05/17 08:50:16;;;;;;;0.65;0.65;;;11.20;64.10;;;;;;5011390;28;20042;-64
2023/05/17 08:52:45;;;;;;;0.55;0.55;;;11.20;64.60;;;;;;5012934;28;20061;-64
2023/05/17 08:55:10;;;;;;;0.10;0.10;;;11.20;64.60;;;;;;5013686;28;20522;-64
2023/05/17 08:57:38;;;;;;;0.20;0.20;;;11.20;64.40;;;;;;5012531;28;20034;-64
2023/05/17 09:00:13;;;;;;;0.90;0.90;;;11.20;64.50;;;;;;5011200;28;20042;-64
2023/05/17 09:02:40;;;;;;;0.00;0.00;;;11.30;64.40;;;;;;5011562;28;20546;-64
2023/05/17 09:05:07;;;;;;;0.00;0.00;;;11.40;64.20;;;;;;5011516;28;20042;-64
2023/05/17 09:07:33;;;;;;;0.00;0.00;;;11.30;63.50;;;;;;5011655;28;20089;-64
2023/05/17 09:09:58;;;;;;;1.05;0.85;;;11.40;64.30;;;;;;5011833;28;20074;-63
2023/05/17 09:12:24;;;;;;;0.00;0.00;;;11.50;64.50;;;;;;5011193;28;20406;-63
2023/05/17 09:14:50;;;;;;;0.00;0.00;;;11.40;64.80;;;;;;5011617;28;20046;-64
2023/05/17 09:17:18;;;;;;;0.00;0.00;;;11.30;63.80;;;;;;5011659;28;20096;-63
2023/05/17 09:19:45;;;;;;;0.00;0.00;;;11.30;63.10;;;;;;5011403;28;20054;-64
2023/05/17 09:22:17;;;;;;;7.47;1.65;;;11.40;63.10;;;;;;5010167;28;20050;-64
2023/05/17 09:24:42;;;;;;;0.10;0.10;;;11.60;62.70;;;;;;5010893;28;20052;-64
2023/05/17 09:27:13;;;;;;;0.00;0.00;;;11.70;62.70;;;;;;5011114;28;20050;-64
2023/05/17 09:29:38;;;;;;;0.00;0.00;;;11.90;62.10;;;;;;5011375;28;20124;-65
2023/05/17 09:32:19;;;;;;;0.10;0.10;;;12.00;61.20;;;;;;5010897;28;20077;-64
2023/05/17 09:34:47;;;;;;;0.10;0.10;;;12.20;59.70;;;;;;5011082;28;21575;-65
2023/05/17 09:37:14;;;;;;;0.00;0.00;;;12.20;58.90;;;;;;5011194;28;20058;-64
2023/05/17 09:39:40;;;;;;;0.00;0.00;;;12.10;59.10;;;;;;5010636;28;20135;-64
2023/05/17 09:42:06;;;;;;;0.00;0.00;;;12.20;58.20;;;;;;5009413;28;20096;-64
2023/05/17 09:44:45;;;;;;;0.00;0.00;;;12.20;59.20;;;;;;5011140;28;20050;-64
2023/05/17 09:47:24;;;;;;;0.43;0.43;;;12.10;58.40;;;;;;5010714;28;20064;-64
2023/05/17 09:49:50;;;;;;;0.00;0.00;;;12.20;58.80;;;;;;5010820;28;20072;-64
2023/05/17 09:52:18;;;;;;;4.38;1.05;;;12.20;59.30;;;;;;5010442;28;20195;-63
2023/05/17 09:54:51;;;;;;;0.00;0.00;;;12.20;59.30;;;;;;5010771;28;20061;-63
2023/05/17 09:57:17;;;;;;;0.00;0.00;;;12.10;56.70;;;;;;5009389;28;20057;-64
2023/05/17 09:59:44;;;;;;;0.00;0.00;;;12.10;55.60;;;;;;5010484;28;20042;-64
2023/05/17 10:02:18;;;;;;;0.00;0.00;;;11.90;53.20;;;;;;5010540;28;20048;-63
2023/05/17 10:04:46;;;;;;;0.00;0.00;;;12.10;56.80;;;;;;5010612;28;20052;-64
2023/05/17 10:07:13;;;;;;;0.00;0.00;;;12.10;57.40;;;;;;5010588;28;20053;-65
2023/05/17 10:09:39;;;;;;;0.00;0.00;;;12.10;57.20;;;;;;5010384;28;20422;-64
2023/05/17 10:12:09;;;;;;;0.00;0.00;;;12.10;54.50;;;;;;5010386;28;20180;-64
2023/05/17 10:14:35;;;;;;;0.00;0.00;;;12.10;54.70;;;;;;5010324;28;20056;-63
2023/05/17 10:17:01;;;;;;;1.00;0.68;;;12.20;55.60;;;;;;5010487;28;20048;-64
2023/05/17 10:19:27;;;;;;;2.28;1.00;;;12.20;54.90;;;;;;5010231;28;20410;-64
2023/05/17 10:21:56;;;;;;;0.00;0.00;;;12.20;56.00;;;;;;5010235;28;20046;-64
2023/05/17 10:24:22;;;;;;;0.03;0.03;;;12.30;55.30;;;;;;5010078;28;20052;-64
2023/05/17 10:26:50;;;;;;;0.00;0.00;;;12.40;55.00;;;;;;5010002;28;20045;-64
2023/05/17 10:29:16;;;;;;;0.00;0.00;;;12.60;54.80;;;;;;5009041;28;20057;-64
2023/05/17 10:31:44;;;;;;;0.00;0.00;;;12.70;54.10;;;;;;5010037;28;20049;-64
2023/05/17 10:34:10;;;;;;;0.90;0.85;;;12.80;54.00;;;;;;5010183;28;20117;-64
2023/05/17 10:36:36;;;;;;;0.00;0.00;;;12.80;52.20;;;;;;5010093;28;20037;-64
2023/05/17 10:39:06;;;;;;;0.00;0.00;;;12.90;53.30;;;;;;5009920;28;20463;-64
2023/05/17 10:41:33;;;;;;;1.38;1.27;;;13.00;50.90;;;;;;5009302;28;20048;-64
2023/05/17 10:44:02;;;;;;;0.00;0.00;;;12.90;52.80;;;;;;5008776;28;20503;-63
2023/05/17 10:46:29;;;;;;;0.00;0.00;;;12.90;53.10;;;;;;5008492;28;20049;-64
2023/05/17 10:48:57;;;;;;;0.00;0.00;;;12.80;53.50;;;;;;5009680;28;20061;-64
2023/05/17 10:51:33;;;;;;;0.25;0.25;;;12.90;54.10;;;;;;5009330;28;20476;-64
2023/05/17 10:54:01;;;;;;;0.00;0.00;;;12.90;54.20;;;;;;5010027;28;20054;-64
2023/05/17 10:56:30;;;;;;;0.40;0.40;;;12.80;54.90;;;;;;5009625;28;20046;-64
2023/05/17 10:59:15;;;;;;;0.00;0.00;;;12.70;54.80;;;;;;5009732;28;20144;-64
2023/05/17 11:01:58;;;;;;;0.00;0.00;;;12.60;55.40;;;;;;5009719;28;20049;-64
2023/05/17 11:04:35;;;;;;;0.38;0.38;;;12.60;56.40;;;;;;5009130;28;20454;-63
2023/05/17 11:07:26;;;;;;;0.00;0.00;;;12.50;56.40;;;;;;5009722;28;20506;-63
2023/05/17 11:10:01;;;;;;;0.20;0.20;;;12.50;55.60;;;;;;5004431;28;20478;-63
2023/05/17 11:12:45;;;;;;;0.00;0.00;;;12.50;56.30;;;;;;5009716;28;20050;-63
2023/05/17 11:15:13;;;;;;;0.00;0.00;;;12.20;57.00;;;;;;5009582;28;20085;-64
2023/05/17 11:17:53;;;;;;;0.00;0.00;;;12.20;57.80;;;;;;5009350;28;20046;-64
2023/05/17 11:20:24;;;;;;;0.00;0.00;;;12.10;59.20;;;;;;5009571;28;20046;-64
2023/05/17 11:23:13;;;;;;;0.10;0.10;;;12.10;58.90;;;;;;5009712;28;20050;-64
2023/05/17 11:25:39;;;;;;;0.13;0.13;;;12.10;59.20;;;;;;4991973;28;20050;-63
2023/05/17 11:28:07;;;;;;;0.00;0.00;;;12.10;59.70;;;;;;5009262;28;20521;-64
2023/05/17 11:30:33;;;;;;;0.00;0.00;;;12.10;59.70;;;;;;5009042;28;20081;-64
2023/05/17 11:33:03;;;;;;;0.00;0.00;;;12.10;60.80;;;;;;5009625;28;20173;-64
2023/05/17 11:35:37;;;;;;;0.85;0.85;;;12.40;60.00;;;;;;5009339;28;20050;-63
2023/05/17 11:38:15;;;;;;;0.00;0.00;;;12.50;60.90;;;;;;5009362;28;20049;-63
2023/05/17 11:40:42;;;;;;;0.00;0.00;;;12.50;59.60;;;;;;4991435;28;20119;-63
2023/05/17 11:43:16;;;;;;;0.00;0.00;;;12.50;60.10;;;;;;5009476;28;20042;-64
2023/05/17 11:45:54;;;;;;;0.10;0.10;;;12.50;59.80;;;;;;5009364;28;20061;-64
2023/05/17 11:48:21;;;;;;;0.00;0.00;;;12.50;59.70;;;;;;5009120;28;20132;-64
2023/05/17 11:50:48;;;;;;;0.00;0.00;;;12.40;59.80;;;;;;5008898;28;20053;-63
2023/05/17 11:53:15;;;;;;;0.00;0.00;;;12.50;59.70;;;;;;5009519;28;20044;-64
2023/05/17 11:55:51;;;;;;;0.00;0.00;;;12.50;59.30;;;;;;5009259;28;20479;-64
2023/05/17 11:58:22;;;;;;;0.00;0.00;;;12.40;59.60;;;;;;5009331;28;20069;-64
2023/05/17 12:00:55;;;;;;;0.00;0.00;;;12.30;59.70;;;;;;5009079;28;20490;-64
2023/05/17 12:03:28;;;;;;;0.00;0.00;;;12.50;59.80;;;;;;5010059;28;20061;-64
2023/05/17 12:06:08;;;;;;;0.30;0.30;;;12.80;59.30;;;;;;5012756;28;20125;-64
2023/05/17 12:08:35;;;;;;;0.00;0.00;;;13.00;59.20;;;;;;4995128;28;20084;-72
2023/05/17 12:11:03;;;;;;;0.00;0.00;;;13.10;58.60;;;;;;5012879;28;20049;-70
2023/05/17 12:13:30;;;;;;;0.00;0.00;;;13.10;57.80;;;;;;5011178;28;20042;-72
2023/05/17 12:15:58;;;;;;;1.05;0.73;;;13.00;57.60;;;;;;4995056;28;20042;-72
2023/05/17 12:18:37;;;;;;;0.38;0.38;;;13.00;57.80;;;;;;5011075;28;20045;-72
2023/05/17 12:21:04;;;;;;;0.00;0.00;;;13.20;58.10;;;;;;5012417;28;20049;-74
2023/05/17 12:23:36;;;;;;;0.00;0.00;;;13.30;57.40;;;;;;5011215;28;20057;-66
2023/05/17 12:26:05;;;;;;;;;;;13.30;57.40;;;;;;5012472;28;20447;-68
2023/05/17 12:28:31;;;;;;;0.05;0.05;;;13.20;57.10;;;;;;5012262;28;19921;-71
2023/05/17 12:30:59;;;;;;;0.35;0.35;;;13.10;55.60;;;;;;5012631;28;20572;-72
2023/05/17 12:33:26;;;;;;;0.73;0.60;;;13.20;56.30;;;;;;5012285;28;20045;-72
2023/05/17 12:35:52;;;;;;;0.10;0.10;;;13.30;56.00;;;;;;5012518;28;20050;-71
2023/05/17 12:38:18;;;;;;;0.00;0.00;;;13.20;56.00;;;;;;5012264;28;20072;-72
2023/05/17 12:40:44;;;;;;;0.20;0.20;;;13.40;55.20;;;;;;5011997;28;20054;-71
2023/05/17 12:43:10;;;;;;;0.00;0.00;;;13.40;55.40;;;;;;5010645;28;20081;-72
2023/05/17 12:45:35;;;;;;;0.00;0.00;;;13.50;54.80;;;;;;5010613;28;20141;-71
2023/05/17 12:48:01;;;;;;;0.00;0.00;;;13.50;56.10;;;;;;5010406;28;20065;-67
2023/05/17 12:50:31;;;;;;;0.60;0.43;;;13.50;55.60;;;;;;5011823;28;20132;-67
2023/05/17 12:52:57;;;;;;;0.00;0.00;;;13.60;55.80;;;;;;5012082;28;20065;-75
2023/05/17 12:55:24;;;;;;;0.10;0.10;;;13.60;53.70;;;;;;5010540;28;20566;-71